Deimos — 3EOQ6 — position and weather

sailwx.info

Track history (hours):
 
Tides and Currents Weather Stations Pressure Air Temp Water Temp Dewpoint Dewpoint Depression Visibility Wind Speed Wind Dir Waves Ship Positions

Deimos

Last reported at 2017-Dec-07 19:35 UTC. Time now 2017-Dec-12 19:50 UTC.
Position N 28°34' W 013°37'.

Length 94 m; draft 6 m.

Type: Cargo ship. MMSI: 352779000.

Date/timePositionNaut miles runAvg speedWind from/ knotsBaromVisibWave heightAir tempDewpointWater temp
2017-Dec-07 19:35N 28°34' W 013°37'211.4
2017-Dec-07 19:23N 28°36' W 013°36'511.3
2017-Dec-07 18:55N 28°41' W 013°33'811.0
2017-Dec-07 18:13N 28°47' W 013°28'411.2
2017-Dec-07 17:53N 28°50' W 013°26'510.9
2017-Dec-07 17:24N 28°55' W 013°23'410.6
2017-Dec-07 17:00N 28°58' W 013°20'  
2017-Dec-04 09:42N 38°30' W 008°56'0 0.0
2017-Dec-04 09:18N 38°30' W 008°56'0 0.0
2017-Dec-04 08:57N 38°30' W 008°56'0 0.0
2017-Dec-04 07:51N 38°30' W 008°56'0 0.0
2017-Dec-04 07:30N 38°30' W 008°56'0 0.0
2017-Dec-04 07:00N 38°30' W 008°56'0 0.0
2017-Dec-04 06:30N 38°30' W 008°56'0 0.0
2017-Dec-04 05:54N 38°30' W 008°56'0 0.0
2017-Dec-04 05:30N 38°30' W 008°56'0 0.0
2017-Dec-04 05:00N 38°30' W 008°56'0 0.0
2017-Dec-04 04:27N 38°30' W 008°56'0 0.0
2017-Dec-04 04:00N 38°30' W 008°56'0 0.0
2017-Dec-04 03:30N 38°30' W 008°56'0 0.0
2017-Dec-04 03:00N 38°30' W 008°56'0 0.0
2017-Dec-04 02:30N 38°30' W 008°56'0 0.0
2017-Dec-04 02:00N 38°30' W 008°56'0 0.0
2017-Dec-04 01:30N 38°30' W 008°56'0 0.0
2017-Dec-04 01:00N 38°30' W 008°56'0 0.0
2017-Dec-04 00:27N 38°30' W 008°56'0 0.0
2017-Dec-03 23:57N 38°30' W 008°56'0 0.0
2017-Dec-03 23:30N 38°30' W 008°56'0 0.0
2017-Dec-03 22:57N 38°30' W 008°56'0 0.0
2017-Dec-03 22:30N 38°30' W 008°56'0 0.0
2017-Dec-03 22:00N 38°30' W 008°56'0 0.0
2017-Dec-03 21:27N 38°30' W 008°56'0 0.0
2017-Dec-03 20:57N 38°30' W 008°56'0 0.0
2017-Dec-03 20:30N 38°30' W 008°56'0 0.0
2017-Dec-03 19:48N 38°30' W 008°56'0 0.0
2017-Dec-03 19:30N 38°30' W 008°56'0 0.0
2017-Dec-03 13:59N 38°30' W 008°56'2 4.5
2017-Dec-03 13:30N 38°28' W 008°58'5 9.0
2017-Dec-03 13:00N 38°24' W 009°01'1 2.6
2017-Dec-03 12:30N 38°23' W 009°02'2 3.8
2017-Dec-03 12:00N 38°22' W 009°03'2 4.9
2017-Dec-03 11:30N 38°19' W 009°04'2 4.6
2017-Dec-03 11:00N 38°17' W 009°05'2 4.2
2017-Dec-03 10:30N 38°15' W 009°06'2 4.3
2017-Dec-03 09:59N 38°13' W 009°07'4 8.0
2017-Dec-03 09:30N 38°10' W 009°10'510.5
2017-Dec-03 09:00N 38°05' W 009°13'510.7
2017-Dec-03 08:30N 38°00' W 009°16'510.9
2017-Dec-03 08:00N 37°55' W 009°19'610.5
2017-Dec-03 07:26N 37°50' W 009°23'  
2017-Nov-30 20:28N 28°52' W 014°58'511.2
2017-Nov-30 20:00N 28°47' W 015°02'511.1
2017-Nov-30 19:30N 28°43' W 015°05'511.0
2017-Nov-30 19:00N 28°38' W 015°07'611.1
2017-Nov-30 18:30N 28°33' W 015°10'611.1
2017-Nov-30 18:00N 28°28' W 015°13'510.8
2017-Nov-30 17:30N 28°23' W 015°16'510.9
2017-Nov-30 17:00N 28°18' W 015°18'510.5
2017-Nov-30 16:30N 28°13' W 015°21'5 9.7
2017-Nov-30 16:00N 28°09' W 015°24'0 0.4
2017-Nov-30 15:19N 28°09' W 015°24'0 0.0
2017-Nov-30 14:52N 28°09' W 015°24'0 0.0
2017-Nov-30 14:22N 28°09' W 015°24'0 0.0
2017-Nov-30 13:52N 28°09' W 015°24'0 0.0
2017-Nov-30 13:22N 28°09' W 015°24'0 0.0
2017-Nov-30 12:52N 28°09' W 015°24'0 0.0
2017-Nov-30 12:22N 28°09' W 015°24'0 0.0
2017-Nov-30 11:52N 28°09' W 015°24'0 0.0
2017-Nov-30 11:22N 28°09' W 015°24'0 0.0
2017-Nov-30 10:52N 28°09' W 015°24'0 0.0
2017-Nov-30 10:25N 28°09' W 015°24'0 0.0
2017-Nov-30 09:55N 28°09' W 015°24'0 0.0
2017-Nov-30 09:25N 28°09' W 015°24'0 0.0
2017-Nov-30 08:55N 28°09' W 015°24'0 0.0
2017-Nov-30 08:25N 28°09' W 015°24'0 0.0
2017-Nov-30 07:55N 28°09' W 015°24'0 0.0
2017-Nov-30 07:25N 28°09' W 015°24'0 0.0
2017-Nov-30 06:55N 28°09' W 015°24'0 0.0
2017-Nov-30 06:22N 28°09' W 015°24'0 0.0
2017-Nov-30 05:58N 28°09' W 015°24'0 0.0
2017-Nov-30 05:28N 28°09' W 015°24'0 0.0
2017-Nov-30 04:58N 28°09' W 015°24'0 0.0
2017-Nov-30 04:28N 28°09' W 015°24'0 0.0
2017-Nov-30 03:58N 28°09' W 015°24'0 0.0
2017-Nov-30 03:27N 28°09' W 015°24'0 0.0
2017-Nov-30 02:54N 28°09' W 015°24'0 0.0
2017-Nov-30 02:27N 28°09' W 015°24'0 0.0
2017-Nov-30 01:57N 28°09' W 015°24'0 0.0
2017-Nov-30 01:27N 28°09' W 015°24'0 0.0
2017-Nov-30 01:00N 28°09' W 015°24'0 0.0
2017-Nov-30 00:30N 28°09' W 015°24'0 0.0
2017-Nov-30 00:00N 28°09' W 015°24'0 0.0
2017-Nov-29 23:26N 28°09' W 015°24'0 0.0
2017-Nov-29 22:56N 28°09' W 015°24'0 0.0
2017-Nov-29 22:29N 28°09' W 015°24'0 0.0
2017-Nov-29 21:59N 28°09' W 015°24'0 0.0
2017-Nov-29 21:29N 28°09' W 015°24'0 0.0
2017-Nov-29 20:59N 28°09' W 015°24'0 0.0
2017-Nov-29 20:29N 28°09' W 015°24'0 0.0
2017-Nov-29 19:44N 28°09' W 015°24'0 0.0
2017-Nov-29 19:30N 28°09' W 015°24'1 1.6
2017-Nov-29 19:00N 28°09' W 015°23'3 5.2
2017-Nov-29 18:30N 28°07' W 015°21'510.5
2017-Nov-29 18:00N 28°07' W 015°15'611.6
2017-Nov-29 17:30N 28°06' W 015°09'611.6
2017-Nov-29 17:00N 28°06' W 015°02'611.7
2017-Nov-29 16:30N 28°05' W 014°56'611.4
2017-Nov-29 16:00N 28°03' W 014°49'611.9
2017-Nov-29 15:30N 27°60' W 014°44'611.6
2017-Nov-29 15:00N 27°56' W 014°39'611.5
2017-Nov-29 14:30N 27°53' W 014°33'1311.4
2017-Nov-29 13:20N 27°45' W 014°21'411.3
2017-Nov-29 12:59N 27°43' W 014°17'511.3
2017-Nov-29 12:30N 27°40' W 014°12'611.3
2017-Nov-29 11:59N 27°36' W 014°08'4611.3
2017-Nov-29 07:57N 27°06' W 013°28'  
Track history (hours):
 
Tides and Currents Weather Stations Pressure Air Temp Water Temp Dewpoint Dewpoint Depression Visibility Wind Speed Wind Dir Waves Ship Positions

Deimos

Last reported at 2017-Dec-07 19:35 UTC. Time now 2017-Dec-12 19:50 UTC.
Position N 28°34' W 013°37'.

Length 94 m; draft 6 m.

Type: Cargo ship. MMSI: 352779000.

Date/timePositionNaut miles runAvg speedWind from/ knotsBaromVisibWave heightAir tempDewpointWater temp
2017-Dec-07 19:35N 28°34' W 013°37'211.4
2017-Dec-07 19:23N 28°36' W 013°36'511.3
2017-Dec-07 18:55N 28°41' W 013°33'811.0
2017-Dec-07 18:13N 28°47' W 013°28'411.2
2017-Dec-07 17:53N 28°50' W 013°26'510.9
2017-Dec-07 17:24N 28°55' W 013°23'410.6
2017-Dec-07 17:00N 28°58' W 013°20'  
2017-Dec-04 09:42N 38°30' W 008°56'0 0.0
2017-Dec-04 09:18N 38°30' W 008°56'0 0.0
2017-Dec-04 08:57N 38°30' W 008°56'0 0.0
2017-Dec-04 07:51N 38°30' W 008°56'0 0.0
2017-Dec-04 07:30N 38°30' W 008°56'0 0.0
2017-Dec-04 07:00N 38°30' W 008°56'0 0.0
2017-Dec-04 06:30N 38°30' W 008°56'0 0.0
2017-Dec-04 05:54N 38°30' W 008°56'0 0.0
2017-Dec-04 05:30N 38°30' W 008°56'0 0.0
2017-Dec-04 05:00N 38°30' W 008°56'0 0.0
2017-Dec-04 04:27N 38°30' W 008°56'0 0.0
2017-Dec-04 04:00N 38°30' W 008°56'0 0.0
2017-Dec-04 03:30N 38°30' W 008°56'0 0.0
2017-Dec-04 03:00N 38°30' W 008°56'0 0.0
2017-Dec-04 02:30N 38°30' W 008°56'0 0.0
2017-Dec-04 02:00N 38°30' W 008°56'0 0.0
2017-Dec-04 01:30N 38°30' W 008°56'0 0.0
2017-Dec-04 01:00N 38°30' W 008°56'0 0.0
2017-Dec-04 00:27N 38°30' W 008°56'0 0.0
2017-Dec-03 23:57N 38°30' W 008°56'0 0.0
2017-Dec-03 23:30N 38°30' W 008°56'0 0.0
2017-Dec-03 22:57N 38°30' W 008°56'0 0.0
2017-Dec-03 22:30N 38°30' W 008°56'0 0.0
2017-Dec-03 22:00N 38°30' W 008°56'0 0.0
2017-Dec-03 21:27N 38°30' W 008°56'0 0.0
2017-Dec-03 20:57N 38°30' W 008°56'0 0.0
2017-Dec-03 20:30N 38°30' W 008°56'0 0.0
2017-Dec-03 19:48N 38°30' W 008°56'0 0.0
2017-Dec-03 19:30N 38°30' W 008°56'0 0.0
2017-Dec-03 13:59N 38°30' W 008°56'2 4.5
2017-Dec-03 13:30N 38°28' W 008°58'5 9.0
2017-Dec-03 13:00N 38°24' W 009°01'1 2.6
2017-Dec-03 12:30N 38°23' W 009°02'2 3.8
2017-Dec-03 12:00N 38°22' W 009°03'2 4.9
2017-Dec-03 11:30N 38°19' W 009°04'2 4.6
2017-Dec-03 11:00N 38°17' W 009°05'2 4.2
2017-Dec-03 10:30N 38°15' W 009°06'2 4.3
2017-Dec-03 09:59N 38°13' W 009°07'4 8.0
2017-Dec-03 09:30N 38°10' W 009°10'510.5
2017-Dec-03 09:00N 38°05' W 009°13'510.7
2017-Dec-03 08:30N 38°00' W 009°16'510.9
2017-Dec-03 08:00N 37°55' W 009°19'610.5
2017-Dec-03 07:26N 37°50' W 009°23'  
2017-Nov-30 20:28N 28°52' W 014°58'511.2
2017-Nov-30 20:00N 28°47' W 015°02'511.1
2017-Nov-30 19:30N 28°43' W 015°05'511.0
2017-Nov-30 19:00N 28°38' W 015°07'611.1
2017-Nov-30 18:30N 28°33' W 015°10'611.1
2017-Nov-30 18:00N 28°28' W 015°13'510.8
2017-Nov-30 17:30N 28°23' W 015°16'510.9
2017-Nov-30 17:00N 28°18' W 015°18'510.5
2017-Nov-30 16:30N 28°13' W 015°21'5 9.7
2017-Nov-30 16:00N 28°09' W 015°24'0 0.4
2017-Nov-30 15:19N 28°09' W 015°24'0 0.0
2017-Nov-30 14:52N 28°09' W 015°24'0 0.0
2017-Nov-30 14:22N 28°09' W 015°24'0 0.0
2017-Nov-30 13:52N 28°09' W 015°24'0 0.0
2017-Nov-30 13:22N 28°09' W 015°24'0 0.0
2017-Nov-30 12:52N 28°09' W 015°24'0 0.0
2017-Nov-30 12:22N 28°09' W 015°24'0 0.0
2017-Nov-30 11:52N 28°09' W 015°24'0 0.0
2017-Nov-30 11:22N 28°09' W 015°24'0 0.0
2017-Nov-30 10:52N 28°09' W 015°24'0 0.0
2017-Nov-30 10:25N 28°09' W 015°24'0 0.0
2017-Nov-30 09:55N 28°09' W 015°24'0 0.0
2017-Nov-30 09:25N 28°09' W 015°24'0 0.0
2017-Nov-30 08:55N 28°09' W 015°24'0 0.0
2017-Nov-30 08:25N 28°09' W 015°24'0 0.0
2017-Nov-30 07:55N 28°09' W 015°24'0 0.0
2017-Nov-30 07:25N 28°09' W 015°24'0 0.0
2017-Nov-30 06:55N 28°09' W 015°24'0 0.0
2017-Nov-30 06:22N 28°09' W 015°24'0 0.0
2017-Nov-30 05:58N 28°09' W 015°24'0 0.0
2017-Nov-30 05:28N 28°09' W 015°24'0 0.0
2017-Nov-30 04:58N 28°09' W 015°24'0 0.0
2017-Nov-30 04:28N 28°09' W 015°24'0 0.0
2017-Nov-30 03:58N 28°09' W 015°24'0 0.0
2017-Nov-30 03:27N 28°09' W 015°24'0 0.0
2017-Nov-30 02:54N 28°09' W 015°24'0 0.0
2017-Nov-30 02:27N 28°09' W 015°24'0 0.0
2017-Nov-30 01:57N 28°09' W 015°24'0 0.0
2017-Nov-30 01:27N 28°09' W 015°24'0 0.0
2017-Nov-30 01:00N 28°09' W 015°24'0 0.0
2017-Nov-30 00:30N 28°09' W 015°24'0 0.0
2017-Nov-30 00:00N 28°09' W 015°24'0 0.0
2017-Nov-29 23:26N 28°09' W 015°24'0 0.0
2017-Nov-29 22:56N 28°09' W 015°24'0 0.0
2017-Nov-29 22:29N 28°09' W 015°24'0 0.0
2017-Nov-29 21:59N 28°09' W 015°24'0 0.0
2017-Nov-29 21:29N 28°09' W 015°24'0 0.0
2017-Nov-29 20:59N 28°09' W 015°24'0 0.0
2017-Nov-29 20:29N 28°09' W 015°24'0 0.0
2017-Nov-29 19:44N 28°09' W 015°24'0 0.0
2017-Nov-29 19:30N 28°09' W 015°24'1 1.6
2017-Nov-29 19:00N 28°09' W 015°23'3 5.2
2017-Nov-29 18:30N 28°07' W 015°21'510.5
2017-Nov-29 18:00N 28°07' W 015°15'611.6
2017-Nov-29 17:30N 28°06' W 015°09'611.6
2017-Nov-29 17:00N 28°06' W 015°02'611.7
2017-Nov-29 16:30N 28°05' W 014°56'611.4
2017-Nov-29 16:00N 28°03' W 014°49'611.9
2017-Nov-29 15:30N 27°60' W 014°44'611.6
2017-Nov-29 15:00N 27°56' W 014°39'611.5
2017-Nov-29 14:30N 27°53' W 014°33'1311.4
2017-Nov-29 13:20N 27°45' W 014°21'411.3
2017-Nov-29 12:59N 27°43' W 014°17'511.3
2017-Nov-29 12:30N 27°40' W 014°12'611.3
2017-Nov-29 11:59N 27°36' W 014°08'4611.3
2017-Nov-29 07:57N 27°06' W 013°28'  

Dump ship's entire track history